Time;durP1;ratioP1;P1;durP2;ratioP2;P2;SDS_P1;SDS_P2;PMS_P1;PMS_P2;Temp;Humidity;BMP_temperature;BMP_pressure;BME280_temperature;BME280_humidity;BME280_pressure;Samples;Min_cycle;Max_cycle;Signal;HPM_P1;HPM_P2
2022/10/06 00:02:08;;;;;;;5.10;4.80;;;15.00;1.00;;;;;;6331494;27;20264;-54
2022/10/06 00:05:11;;;;;;;5.67;5.37;;;15.00;1.00;;;;;;6334158;27;20243;-54
2022/10/06 00:08:16;;;;;;;5.30;5.10;;;15.10;1.00;;;;;;6336167;27;20239;-53
2022/10/06 00:11:18;;;;;;;5.30;5.10;;;15.00;1.00;;;;;;6324997;27;20266;-53
2022/10/06 00:14:21;;;;;;;4.63;4.50;;;15.00;1.00;;;;;;6312196;28;20232;-53
2022/10/06 00:17:24;;;;;;;5.67;5.30;;;15.00;1.00;;;;;;6310026;28;20620;-54
2022/10/06 00:20:27;;;;;;;4.87;4.60;;;15.00;1.00;;;;;;6328264;27;20235;-54
2022/10/06 00:23:31;;;;;;;5.10;4.93;;;15.00;1.00;;;;;;6335821;27;20392;-53
2022/10/06 00:26:34;;;;;;;5.50;5.03;;;15.00;1.00;;;;;;6335839;27;20705;-54
2022/10/06 00:29:41;;;;;;;5.07;4.87;;;15.00;1.00;;;;;;6322604;28;20246;-53
2022/10/06 00:32:51;;;;;;;8.00;4.90;;;15.00;1.00;;;;;;6315184;28;20422;-54
2022/10/06 00:35:57;;;;;;;5.17;4.97;;;14.90;1.00;;;;;;6333786;27;20732;-54
2022/10/06 00:39:01;;;;;;;5.07;4.97;;;14.90;1.00;;;;;;6329689;27;20769;-54
2022/10/06 00:42:04;;;;;;;5.67;5.17;;;15.00;1.00;;;;;;6332369;27;20232;-54
2022/10/06 00:45:08;;;;;;;5.17;4.97;;;15.00;1.00;;;;;;6332893;28;20375;-54
2022/10/06 00:48:16;;;;;;;5.60;5.20;;;15.20;1.00;;;;;;6321725;28;20252;-53
2022/10/06 00:51:21;;;;;;;5.17;4.87;;;15.30;1.00;;;;;;6331402;27;20243;-54
2022/10/06 00:54:25;;;;;;;5.00;4.80;;;15.40;1.00;;;;;;6334452;28;20716;-54
2022/10/06 00:57:28;;;;;;;5.30;5.00;;;15.50;1.00;;;;;;6334176;28;20703;-54
2022/10/06 01:00:31;;;;;;;5.57;5.07;;;15.60;1.00;;;;;;6314938;28;20240;-53
2022/10/06 01:03:37;;;;;;;4.80;4.70;;;15.70;1.00;;;;;;6320111;27;20236;-53
2022/10/06 01:06:44;;;;;;;5.10;4.80;;;15.70;1.00;;;;;;6326088;27;20235;-54
2022/10/06 01:09:48;;;;;;;6.83;4.93;;;15.80;1.00;;;;;;6312516;27;20259;-53
2022/10/06 01:12:51;;;;;;;4.83;4.63;;;15.90;1.00;;;;;;6321264;28;20236;-53
2022/10/06 01:16:01;;;;;;;5.43;4.93;;;16.00;1.00;;;;;;6339517;28;20409;-54
2022/10/06 01:19:07;;;;;;;4.97;4.73;;;15.90;1.00;;;;;;6332494;28;20235;-54
2022/10/06 01:22:14;;;;;;;5.57;5.03;;;16.00;1.00;;;;;;6330516;27;20325;-54
2022/10/06 01:25:19;;;;;;;5.30;4.90;;;16.10;1.00;;;;;;6344062;28;20235;-52
2022/10/06 01:28:22;;;;;;;4.77;4.47;;;16.10;1.00;;;;;;6337718;27;20382;-54
2022/10/06 01:31:26;;;;;;;4.60;4.40;;;16.10;1.00;;;;;;6339725;28;20247;-53
2022/10/06 01:34:29;;;;;;;4.77;4.47;;;16.10;1.00;;;;;;6327494;27;20254;-52
2022/10/06 01:37:32;;;;;;;4.77;4.47;;;16.10;1.00;;;;;;6335603;27;20600;-54
2022/10/06 01:40:36;;;;;;;4.57;4.37;;;16.10;1.00;;;;;;6341366;27;20389;-54
2022/10/06 01:43:39;;;;;;;6.40;5.07;;;16.00;1.00;;;;;;6315301;28;20415;-54
2022/10/06 01:46:42;;;;;;;4.87;4.67;;;16.00;1.00;;;;;;6314261;28;20236;-53
2022/10/06 01:49:44;;;;;;;5.07;4.87;;;16.00;1.00;;;;;;6320227;28;20236;-53
2022/10/06 01:52:47;;;;;;;4.83;4.63;;;15.90;1.00;;;;;;6337710;27;20748;-53
2022/10/06 01:55:52;;;;;;;4.53;4.43;;;15.90;1.00;;;;;;6333849;27;20229;-54
2022/10/06 01:58:54;;;;;;;4.80;4.60;;;15.80;1.00;;;;;;6313368;28;20239;-53
2022/10/06 02:01:57;;;;;;;5.00;4.70;;;15.80;1.00;;;;;;6313051;28;20450;-54
2022/10/06 02:05:00;;;;;;;4.80;4.50;;;15.70;1.00;;;;;;6336280;27;20472;-54
2022/10/06 02:08:03;;;;;;;4.83;4.53;;;15.70;1.00;;;;;;6332575;27;20235;-58
2022/10/06 02:11:10;;;;;;;5.10;4.70;;;15.70;1.00;;;;;;6337027;27;20846;-53
2022/10/06 02:14:13;;;;;;;4.93;4.73;;;15.70;1.00;;;;;;6324688;27;20259;-55
2022/10/06 02:17:16;;;;;;;4.80;4.53;;;15.60;1.00;;;;;;6337718;27;20254;-55
2022/10/06 02:20:19;;;;;;;5.10;4.90;;;15.60;1.00;;;;;;6337517;27;20235;-53
2022/10/06 02:23:22;;;;;;;5.17;4.77;;;15.50;1.00;;;;;;6333043;27;20244;-53
2022/10/06 02:26:26;;;;;;;5.03;4.80;;;15.50;1.00;;;;;;6313684;28;20239;-54
2022/10/06 02:29:29;;;;;;;5.17;4.77;;;15.40;1.00;;;;;;6312112;28;20232;-52
2022/10/06 02:32:36;;;;;;;5.20;4.93;;;15.30;1.00;;;;;;6314735;28;20240;-54
2022/10/06 02:35:41;;;;;;;5.57;5.17;;;15.30;1.00;;;;;;6329848;27;20762;-55
2022/10/06 02:38:44;;;;;;;4.83;4.63;;;15.40;1.00;;;;;;6337344;27;20434;-54
2022/10/06 02:41:48;;;;;;;5.80;5.17;;;15.30;1.00;;;;;;6337599;28;20716;-53
2022/10/06 02:44:51;;;;;;;4.97;4.67;;;15.30;1.00;;;;;;6319853;28;20728;-54
2022/10/06 02:47:54;;;;;;;5.80;5.50;;;15.30;1.00;;;;;;6316162;27;20708;-53
2022/10/06 02:50:58;;;;;;;5.20;4.80;;;15.30;1.00;;;;;;6335377;27;20342;-54
2022/10/06 02:54:01;;;;;;;5.83;5.33;;;15.30;1.00;;;;;;6324269;27;20241;-55
2022/10/06 02:57:05;;;;;;;4.90;4.63;;;15.30;1.00;;;;;;6312933;28;20244;-57
2022/10/06 03:00:10;;;;;;;4.90;4.80;;;15.30;1.00;;;;;;6323998;27;20231;-54
2022/10/06 03:03:13;;;;;;;5.00;4.80;;;15.30;1.00;;;;;;6333376;27;20232;-51
2022/10/06 03:06:23;;;;;;;6.60;5.03;;;15.30;1.00;;;;;;6333511;27;20660;-54
2022/10/06 03:09:26;;;;;;;5.03;4.73;;;15.40;1.00;;;;;;6334545;27;20601;-53
2022/10/06 03:12:30;;;;;;;5.43;4.90;;;15.40;1.00;;;;;;6325717;27;20233;-54
2022/10/06 03:15:33;;;;;;;5.03;4.87;;;15.40;1.00;;;;;;6309815;28;20235;-54
2022/10/06 03:18:36;;;;;;;5.80;5.30;;;15.50;1.00;;;;;;6312446;28;20870;-53
2022/10/06 03:21:41;;;;;;;5.87;5.30;;;15.60;1.00;;;;;;6331767;27;20612;-54
2022/10/06 03:24:44;;;;;;;5.27;5.07;;;15.60;1.00;;;;;;6336830;27;20701;-53
2022/10/06 03:27:48;;;;;;;5.30;5.10;;;15.60;1.00;;;;;;6335996;27;20629;-54
2022/10/06 03:30:51;;;;;;;4.93;4.73;;;15.60;1.00;;;;;;6336379;27;20232;-53
2022/10/06 03:33:55;;;;;;;6.67;5.50;;;15.70;1.00;;;;;;6307992;27;20236;-53
2022/10/06 03:36:58;;;;;;;5.23;5.03;;;15.60;1.00;;;;;;6326586;27;20810;-53
2022/10/06 03:40:01;;;;;;;5.17;4.87;;;15.60;1.00;;;;;;6326613;27;20709;-54
2022/10/06 03:43:05;;;;;;;4.60;4.30;;;15.60;1.00;;;;;;6330669;27;20232;-53
2022/10/06 03:46:10;;;;;;;5.27;4.90;;;15.70;1.00;;;;;;6328166;27;20239;-53
2022/10/06 03:49:12;;;;;;;4.83;4.63;;;15.70;1.00;;;;;;6328562;27;20712;-53
2022/10/06 03:52:15;;;;;;;4.90;4.50;;;15.70;1.00;;;;;;6330686;27;20238;-54
2022/10/06 03:55:18;;;;;;;5.13;4.77;;;15.80;1.00;;;;;;6333263;27;20259;-53
2022/10/06 03:58:22;;;;;;;4.30;4.20;;;15.80;1.00;;;;;;6327560;28;20231;-54
2022/10/06 04:01:27;;;;;;;5.10;4.80;;;15.90;1.00;;;;;;6332343;28;20223;-54
2022/10/06 04:04:30;;;;;;;5.10;4.80;;;15.90;1.00;;;;;;6340514;27;22512;-54
2022/10/06 04:07:33;;;;;;;4.10;3.80;;;15.90;1.00;;;;;;6329868;27;20319;-54
2022/10/06 04:10:36;;;;;;;3.80;3.70;;;15.90;1.00;;;;;;6330811;27;20250;-54
2022/10/06 04:13:41;;;;;;;4.20;3.87;;;15.90;1.00;;;;;;6344459;27;20268;-59
2022/10/06 04:16:46;;;;;;;3.80;3.70;;;15.90;1.00;;;;;;6329426;27;20236;-53
2022/10/06 04:19:49;;;;;;;4.57;4.27;;;15.90;1.00;;;;;;6337171;27;20704;-54
2022/10/06 04:22:51;;;;;;;4.27;4.07;;;15.90;1.00;;;;;;6332566;27;20227;-54
2022/10/06 04:25:58;;;;;;;4.17;3.83;;;15.90;1.00;;;;;;6331969;28;20239;-54
2022/10/06 04:29:03;;;;;;;4.20;3.80;;;16.00;1.00;;;;;;6332687;27;20513;-54
2022/10/06 04:32:05;;;;;;;4.83;3.97;;;16.00;1.00;;;;;;6324196;28;20849;-53
2022/10/06 04:35:09;;;;;;;3.37;3.17;;;16.00;1.00;;;;;;6327381;27;20462;-54
2022/10/06 04:38:13;;;;;;;2.90;2.57;;;16.00;1.00;;;;;;6328589;27;20457;-54
2022/10/06 04:41:17;;;;;;;2.43;2.33;;;16.00;1.00;;;;;;6333300;27;20227;-53
2022/10/06 04:44:21;;;;;;;2.57;2.20;;;15.90;1.00;;;;;;6330899;27;20647;-52
2022/10/06 04:47:24;;;;;;;2.13;2.03;;;15.90;1.00;;;;;;6332336;28;20235;-54
2022/10/06 04:50:27;;;;;;;2.30;2.20;;;15.90;1.00;;;;;;6329844;27;20985;-53
2022/10/06 04:53:31;;;;;;;2.23;2.10;;;16.00;1.00;;;;;;6333053;27;20615;-54
2022/10/06 04:56:33;;;;;;;2.30;2.10;;;15.90;1.00;;;;;;6333048;28;20236;-54
2022/10/06 05:03:01;;;;;;;3.03;1.90;;;16.00;1.00;;;;;;6342005;27;20365;-54
2022/10/06 05:06:05;;;;;;;2.50;2.40;;;16.00;1.00;;;;;;6328404;27;20235;-54
2022/10/06 05:09:10;;;;;;;2.10;1.90;;;16.00;1.00;;;;;;6319414;28;20243;-54
2022/10/06 05:12:12;;;;;;;2.20;2.10;;;16.00;1.00;;;;;;6325003;27;20250;-54
2022/10/06 05:15:17;;;;;;;1.80;1.80;;;15.90;1.00;;;;;;6331708;28;20242;-52
2022/10/06 05:18:20;;;;;;;2.00;2.00;;;15.90;1.00;;;;;;6331515;27;20720;-56
2022/10/06 05:21:24;;;;;;;1.70;1.70;;;15.80;1.00;;;;;;6338290;27;20236;-53
2022/10/06 05:24:27;;;;;;;1.90;1.80;;;15.80;1.00;;;;;;6334999;27;20868;-52
2022/10/06 05:27:30;;;;;;;1.93;1.83;;;15.80;1.00;;;;;;6334637;27;20231;-54
2022/10/06 05:30:34;;;;;;;1.80;1.70;;;15.80;1.00;;;;;;6329286;27;20232;-53
2022/10/06 05:33:37;;;;;;;2.23;1.80;;;15.70;1.00;;;;;;6334723;27;20767;-55
2022/10/06 05:36:39;;;;;;;3.03;1.70;;;15.80;1.00;;;;;;6332259;27;20236;-53
2022/10/06 05:39:42;;;;;;;1.37;1.37;;;15.80;1.00;;;;;;6336580;27;20230;-53
2022/10/06 05:42:45;;;;;;;2.10;1.90;;;15.70;1.00;;;;;;6325201;27;20247;-54
2022/10/06 05:45:57;;;;;;;1.90;1.90;;;15.70;1.00;;;;;;6330851;27;20232;-54
2022/10/06 05:49:02;;;;;;;1.90;1.80;;;15.70;1.00;;;;;;6322100;28;20361;-52
2022/10/06 05:52:04;;;;;;;2.73;1.87;;;15.60;1.00;;;;;;6330592;27;20466;-52
2022/10/06 05:55:09;;;;;;;1.90;1.80;;;15.60;1.00;;;;;;6331685;27;20271;-53
2022/10/06 05:58:11;;;;;;;3.93;1.80;;;15.60;1.00;;;;;;6319442;28;20228;-53
2022/10/06 06:01:23;;;;;;;2.63;1.93;;;15.50;1.00;;;;;;6331186;27;20243;-53
2022/10/06 06:04:26;;;;;;;1.80;1.70;;;15.50;1.00;;;;;;6335666;28;20251;-53
2022/10/06 06:07:29;;;;;;;1.90;1.80;;;15.40;1.00;;;;;;6326799;28;20613;-54
2022/10/06 06:10:32;;;;;;;1.93;1.83;;;15.40;1.00;;;;;;6338643;28;20239;-54
2022/10/06 06:13:35;;;;;;;2.20;2.10;;;15.40;1.00;;;;;;6337406;27;20238;-54
2022/10/06 06:16:40;;;;;;;3.83;2.03;;;15.30;1.00;;;;;;6335087;27;20257;-54
2022/10/06 06:19:43;;;;;;;2.13;1.97;;;15.30;1.00;;;;;;6332065;27;20716;-54
2022/10/06 06:22:51;;;;;;;1.60;1.60;;;15.30;1.00;;;;;;6339711;27;20597;-54
2022/10/06 06:25:59;;;;;;;1.80;1.70;;;15.30;1.00;;;;;;6330845;27;20232;-54
2022/10/06 06:29:05;;;;;;;1.73;1.70;;;15.40;1.00;;;;;;6330245;27;20454;-54
2022/10/06 06:32:09;;;;;;;2.20;1.70;;;15.40;1.00;;;;;;6331823;28;20533;-54
2022/10/06 06:35:12;;;;;;;1.93;1.80;;;15.30;1.00;;;;;;6343445;27;20235;-53
2022/10/06 06:38:15;;;;;;;1.73;1.73;;;15.20;1.00;;;;;;6331563;28;20634;-54
2022/10/06 06:41:20;;;;;;;1.93;1.83;;;15.30;1.00;;;;;;6330490;27;20232;-53
2022/10/06 06:44:22;;;;;;;1.97;1.87;;;15.20;1.00;;;;;;6334262;27;20473;-53
2022/10/06 06:47:26;;;;;;;1.97;1.87;;;15.20;1.00;;;;;;6330652;28;20227;-53
2022/10/06 06:50:30;;;;;;;1.80;1.80;;;15.20;1.00;;;;;;6327727;27;20239;-54
2022/10/06 06:53:33;;;;;;;2.20;2.03;;;15.20;1.00;;;;;;6326844;27;20232;-53
2022/10/06 06:56:37;;;;;;;1.77;1.77;;;15.30;1.00;;;;;;6335108;27;20896;-54
2022/10/06 06:59:40;;;;;;;4.67;2.40;;;15.50;1.00;;;;;;6328962;28;20232;-53
2022/10/06 07:02:44;;;;;;;3.13;2.13;;;15.70;1.00;;;;;;6334026;27;20239;-54
2022/10/06 07:05:47;;;;;;;3.50;2.10;;;15.70;1.00;;;;;;6334806;27;20648;-53
2022/10/06 07:08:51;;;;;;;3.87;2.00;;;15.70;1.00;;;;;;6329146;27;20383;-53
2022/10/06 07:11:54;;;;;;;2.13;1.93;;;15.60;1.00;;;;;;6326474;28;20386;-54
2022/10/06 07:25:10;;;;;;;2.00;1.90;;;15.50;1.00;;;;;;6317308;28;20443;-53
2022/10/06 07:28:15;;;;;;;4.60;2.10;;;15.40;1.00;;;;;;6319437;27;20233;-56
2022/10/06 07:31:18;;;;;;;2.50;2.30;;;15.40;1.00;;;;;;6326458;27;20236;-52
2022/10/06 07:34:22;;;;;;;2.30;2.10;;;15.50;1.00;;;;;;6327823;27;20251;-52
2022/10/06 07:37:27;;;;;;;2.00;1.90;;;15.50;1.00;;;;;;6319759;28;20613;-55
2022/10/06 07:40:30;;;;;;;2.43;2.20;;;15.50;1.00;;;;;;6331909;28;20253;-55
2022/10/06 07:43:33;;;;;;;4.13;2.13;;;15.60;1.00;;;;;;6323286;27;20236;-52
2022/10/06 07:46:35;;;;;;;6.37;2.10;;;15.60;1.00;;;;;;6324674;27;20233;-53
2022/10/06 07:49:41;;;;;;;2.37;2.13;;;15.70;1.00;;;;;;6327791;27;20735;-54
2022/10/06 07:52:44;;;;;;;2.60;2.03;;;15.70;1.00;;;;;;6333841;27;20242;-52
2022/10/06 07:55:48;;;;;;;2.33;2.00;;;15.80;1.00;;;;;;6335107;27;20235;-53
2022/10/06 07:58:51;;;;;;;5.87;2.60;;;15.80;1.00;;;;;;6326074;27;20243;-53
2022/10/06 08:01:54;;;;;;;2.63;2.40;;;15.90;1.00;;;;;;6332383;27;20266;-53
2022/10/06 08:04:58;;;;;;;4.33;2.40;;;15.90;1.00;;;;;;6330303;27;20721;-54
2022/10/06 08:08:01;;;;;;;4.73;2.30;;;16.10;1.00;;;;;;6329157;27;20242;-53
2022/10/06 08:11:05;;;;;;;2.40;2.20;;;16.10;1.00;;;;;;6330316;27;20294;-55
2022/10/06 08:14:09;;;;;;;2.33;1.97;;;16.20;1.00;;;;;;6337590;27;20595;-53
2022/10/06 08:17:12;;;;;;;5.17;2.47;;;16.20;1.00;;;;;;6324933;27;20228;-52
2022/10/06 08:20:17;;;;;;;2.53;2.20;;;16.30;1.00;;;;;;6330296;27;20224;-54
2022/10/06 08:23:20;;;;;;;7.13;2.27;;;16.30;1.00;;;;;;6326291;28;20233;-52
2022/10/06 08:26:24;;;;;;;3.10;2.13;;;16.20;1.00;;;;;;6331188;27;20590;-53
2022/10/06 08:29:27;;;;;;;4.03;2.67;;;16.10;1.00;;;;;;6335472;27;20228;-53
2022/10/06 08:32:30;;;;;;;3.67;2.63;;;16.10;1.00;;;;;;6327823;27;20247;-52
2022/10/06 08:35:35;;;;;;;3.43;2.43;;;16.10;1.00;;;;;;6325390;27;20320;-53
2022/10/06 08:38:38;;;;;;;3.00;2.30;;;16.00;1.00;;;;;;6335438;27;20629;-53
2022/10/06 08:41:47;;;;;;;5.67;2.73;;;16.00;1.00;;;;;;6330063;27;20244;-54
2022/10/06 08:44:56;;;;;;;4.03;2.23;;;16.10;1.00;;;;;;6321818;28;20239;-52
2022/10/06 08:48:03;;;;;;;2.70;2.53;;;16.20;1.00;;;;;;6321999;28;20282;-52
2022/10/06 08:51:18;;;;;;;4.27;2.40;;;16.20;1.00;;;;;;6322582;28;20701;-53
2022/10/06 08:54:28;;;;;;;5.60;2.37;;;16.30;1.00;;;;;;6326793;27;21748;-55
2022/10/06 08:57:36;;;;;;;2.27;2.07;;;16.40;1.00;;;;;;6320203;27;20629;-53
2022/10/06 09:00:39;;;;;;;3.33;2.37;;;16.50;1.00;;;;;;6329994;27;20240;-53
2022/10/06 09:03:46;;;;;;;6.90;2.50;;;16.40;1.00;;;;;;6328884;27;20318;-53
2022/10/06 09:06:59;;;;;;;8.90;2.63;;;16.30;1.00;;;;;;6322690;27;20683;-53
2022/10/06 09:10:16;;;;;;;5.60;2.50;;;16.30;1.00;;;;;;6330239;28;20271;-53
2022/10/06 09:13:24;;;;;;;6.13;2.60;;;16.20;1.00;;;;;;6331677;27;20223;-54
2022/10/06 09:16:30;;;;;;;6.40;3.23;;;16.40;1.00;;;;;;6334738;27;20369;-53
2022/10/06 09:19:40;;;;;;;3.43;2.50;;;16.50;1.00;;;;;;6329990;27;20235;-54
2022/10/06 09:22:45;;;;;;;6.90;2.50;;;16.80;1.00;;;;;;6328213;28;20267;-53
2022/10/06 09:25:49;;;;;;;5.73;2.33;;;16.90;1.00;;;;;;6317609;28;20411;-55
2022/10/06 09:28:52;;;;;;;7.57;2.77;;;17.00;1.00;;;;;;6342068;27;20496;-55
2022/10/06 09:31:55;;;;;;;3.90;2.60;;;17.20;1.00;;;;;;6316404;28;20267;-54
2022/10/06 09:34:59;;;;;;;7.47;3.23;;;17.30;1.00;;;;;;6322847;28;20232;-56
2022/10/06 09:38:05;;;;;;;3.73;2.43;;;17.40;1.00;;;;;;6337028;27;20235;-53
2022/10/06 09:41:12;;;;;;;5.90;2.60;;;17.60;1.00;;;;;;6327536;27;20239;-54
2022/10/06 09:44:23;;;;;;;7.20;2.43;;;17.50;1.00;;;;;;6330942;27;20239;-54
2022/10/06 09:47:39;;;;;;;4.93;2.50;;;17.50;1.00;;;;;;6329808;28;20318;-54
2022/10/06 09:50:42;;;;;;;2.63;2.20;;;17.50;1.00;;;;;;6322601;27;20717;-54
2022/10/06 09:54:09;;;;;;;6.90;2.30;;;17.50;1.00;;;;;;6333998;27;20235;-54
2022/10/06 09:57:16;;;;;;;3.70;2.27;;;17.50;1.00;;;;;;6328019;28;20267;-54
2022/10/06 10:00:26;;;;;;;3.30;2.50;;;17.50;1.00;;;;;;6328427;28;20231;-53
2022/10/06 10:03:44;;;;;;;5.73;2.60;;;17.50;1.00;;;;;;6334123;27;20508;-54
2022/10/06 10:07:15;;;;;;;7.00;3.10;;;17.60;1.00;;;;;;6329042;27;20284;-52
2022/10/06 10:10:21;;;;;;;2.97;2.43;;;17.70;1.00;;;;;;6329662;27;20252;-52
2022/10/06 10:13:28;;;;;;;6.00;2.50;;;17.80;1.00;;;;;;6335129;27;20243;-52
2022/10/06 10:16:34;;;;;;;5.67;2.50;;;17.80;1.00;;;;;;6334595;28;20239;-55
2022/10/06 10:19:41;;;;;;;6.53;2.30;;;17.70;1.00;;;;;;6329640;28;20224;-54
2022/10/06 10:22:47;;;;;;;4.73;2.33;;;17.70;1.00;;;;;;6331841;27;20246;-53
2022/10/06 10:26:26;;;;;;;6.00;2.60;;;17.80;1.00;;;;;;6320246;28;20644;-54
2022/10/06 10:29:48;;;;;;;7.40;2.30;;;18.00;1.00;;;;;;6318787;27;20239;-54
2022/10/06 10:33:00;;;;;;;3.70;2.37;;;18.00;1.00;;;;;;6327769;27;20231;-54
2022/10/06 10:36:05;;;;;;;2.63;2.27;;;18.00;1.00;;;;;;6332302;27;20224;-53
2022/10/06 10:39:15;;;;;;;5.97;3.30;;;18.00;1.00;;;;;;6330863;27;20751;-56
2022/10/06 10:42:25;;;;;;;4.83;2.80;;;18.10;1.00;;;;;;6320840;27;20711;-54
2022/10/06 10:45:32;;;;;;;3.50;2.47;;;18.20;1.00;;;;;;6332742;27;20386;-54
2022/10/06 10:48:40;;;;;;;3.00;1.90;;;18.20;1.00;;;;;;6337158;27;20242;-53
2022/10/06 10:51:49;;;;;;;2.97;2.43;;;18.20;1.00;;;;;;6334212;28;20236;-54
2022/10/06 10:55:05;;;;;;;3.97;2.27;;;18.20;1.00;;;;;;6329557;27;20244;-54
2022/10/06 10:58:17;;;;;;;2.87;2.17;;;18.20;1.00;;;;;;6332737;27;20230;-53
2022/10/06 11:01:29;;;;;;;3.37;2.00;;;18.30;1.00;;;;;;6333154;27;20250;-53
2022/10/06 11:04:32;;;;;;;2.73;2.20;;;18.30;1.00;;;;;;6326443;27;20236;-53
2022/10/06 11:07:43;;;;;;;2.23;2.10;;;18.30;1.00;;;;;;6322146;27;20614;-53
2022/10/06 11:10:50;;;;;;;7.67;2.40;;;18.50;1.00;;;;;;6334312;27;20780;-52
2022/10/06 11:13:57;;;;;;;3.40;2.53;;;18.60;1.00;;;;;;6329753;27;20240;-53
2022/10/06 11:17:05;;;;;;;3.03;1.90;;;18.70;1.00;;;;;;6322962;28;20458;-54
2022/10/06 11:20:24;;;;;;;3.67;2.17;;;18.70;1.00;;;;;;6325633;28;20228;-53
2022/10/06 11:23:46;;;;;;;3.77;2.10;;;18.70;1.00;;;;;;6322812;27;20243;-53
2022/10/06 11:27:15;;;;;;;3.73;2.50;;;18.80;1.00;;;;;;6322731;27;20243;-52
2022/10/06 11:30:25;;;;;;;4.37;2.20;;;18.70;1.00;;;;;;6326983;27;20605;-54
2022/10/06 11:33:33;;;;;;;6.47;2.63;;;18.70;1.00;;;;;;6333485;27;20229;-54
2022/10/06 11:36:46;;;;;;;6.70;2.60;;;18.80;1.00;;;;;;6322368;27;20236;-53
2022/10/06 11:39:58;;;;;;;2.40;2.30;;;18.80;1.00;;;;;;6330394;28;20242;-55
2022/10/06 11:43:09;;;;;;;4.93;2.53;;;18.80;1.00;;;;;;6322074;28;20261;-54
2022/10/06 11:46:26;;;;;;;3.70;2.67;;;18.70;1.00;;;;;;6326378;27;20255;-54
2022/10/06 11:49:38;;;;;;;8.03;3.03;;;18.70;1.00;;;;;;6328747;28;20600;-53
2022/10/06 11:52:45;;;;;;;5.37;3.00;;;18.60;1.00;;;;;;6330193;27;20775;-52
2022/10/06 11:55:48;;;;;;;5.27;2.50;;;18.60;1.00;;;;;;6317051;27;20228;-54
2022/10/06 11:59:09;;;;;;;3.63;2.20;;;18.50;1.00;;;;;;6334506;27;20239;-52
2022/10/06 12:02:37;;;;;;;4.23;2.40;;;18.50;1.00;;;;;;6329332;28;20471;-55
2022/10/06 12:05:39;;;;;;;5.47;2.10;;;18.60;1.00;;;;;;6327726;27;20407;-54
2022/10/06 12:08:59;;;;;;;2.90;2.13;;;18.40;1.00;;;;;;6316853;27;20225;-54
2022/10/06 12:12:41;;;;;;;3.17;2.43;;;18.40;1.00;;;;;;6336562;27;20228;-54
2022/10/06 12:16:02;;;;;;;6.00;2.17;;;18.50;1.00;;;;;;6323393;27;20259;-54
2022/10/06 12:19:30;;;;;;;3.27;2.17;;;18.50;1.00;;;;;;6320576;27;20252;-53
2022/10/06 12:22:35;;;;;;;4.20;2.20;;;18.70;1.00;;;;;;6325668;27;20247;-53
2022/10/06 12:25:46;;;;;;;4.13;2.47;;;18.60;1.00;;;;;;6325142;28;20814;-53
2022/10/06 12:28:56;;;;;;;2.50;2.10;;;18.80;1.00;;;;;;6337652;27;20255;-53
2022/10/06 12:32:12;;;;;;;5.53;2.47;;;18.80;1.00;;;;;;6331614;27;20240;-54
2022/10/06 12:35:30;;;;;;;2.73;2.00;;;18.60;1.00;;;;;;6330103;27;20228;-54
2022/10/06 12:38:42;;;;;;;5.53;2.33;;;18.60;1.00;;;;;;6326998;27;20241;-54
2022/10/06 12:41:56;;;;;;;6.50;2.27;;;18.70;1.00;;;;;;6334394;28;20282;-53
2022/10/06 12:44:59;;;;;;;4.23;1.97;;;18.80;1.00;;;;;;6323918;27;20319;-53
2022/10/06 12:48:07;;;;;;;5.90;2.60;;;18.90;1.00;;;;;;6327494;28;20236;-54
2022/10/06 12:51:22;;;;;;;6.70;2.20;;;18.80;1.00;;;;;;6323539;27;20235;-52
2022/10/06 12:54:33;;;;;;;3.17;2.50;;;18.80;1.00;;;;;;6336411;27;20342;-55
2022/10/06 12:57:46;;;;;;;6.13;2.30;;;18.80;1.00;;;;;;6323010;28;20224;-53
2022/10/06 13:00:50;;;;;;;4.67;2.00;;;18.70;1.00;;;;;;6318808;27;20232;-55
2022/10/06 13:03:54;;;;;;;5.67;2.40;;;18.80;1.00;;;;;;6331673;28;20236;-53
2022/10/06 13:06:57;;;;;;;4.00;2.27;;;18.90;1.00;;;;;;6331872;27;20228;-53
2022/10/06 13:10:18;;;;;;;5.30;2.27;;;18.80;1.00;;;;;;6325301;27;20259;-54
2022/10/06 13:13:23;;;;;;;3.83;2.37;;;18.90;1.00;;;;;;6337947;27;20255;-53
2022/10/06 13:16:28;;;;;;;2.03;1.93;;;19.10;1.00;;;;;;6327964;27;20262;-54
2022/10/06 13:19:32;;;;;;;3.60;2.20;;;19.00;1.00;;;;;;6332471;28;20236;-53
2022/10/06 13:22:35;;;;;;;8.50;2.40;;;19.00;1.00;;;;;;6338092;27;20688;-55
2022/10/06 13:25:43;;;;;;;4.40;2.10;;;18.80;1.00;;;;;;6328738;27;20412;-54
2022/10/06 13:28:47;;;;;;;4.23;2.33;;;18.70;1.00;;;;;;6328646;28;20235;-55
2022/10/06 13:31:52;;;;;;;3.37;2.30;;;18.80;1.00;;;;;;6337664;27;20244;-53
2022/10/06 13:34:57;;;;;;;5.60;2.30;;;18.90;1.00;;;;;;6326285;27;20285;-53
2022/10/06 13:38:00;;;;;;;3.67;2.50;;;18.60;1.00;;;;;;6336062;28;20242;-53
2022/10/06 13:41:19;;;;;;;6.00;2.37;;;18.60;1.00;;;;;;6330325;27;20240;-53
2022/10/06 13:44:30;;;;;;;3.90;2.53;;;18.50;1.00;;;;;;6329349;27;20231;-53
2022/10/06 13:47:33;;;;;;;4.80;2.47;;;18.40;1.00;;;;;;6335247;27;20251;-54
2022/10/06 13:50:37;;;;;;;3.43;2.20;;;18.30;1.00;;;;;;6331031;27;20235;-53
2022/10/06 13:53:44;;;;;;;5.93;2.40;;;18.20;1.00;;;;;;6336618;28;20239;-53
2022/10/06 13:56:47;;;;;;;2.30;1.90;;;18.20;1.00;;;;;;6344350;27;20231;-52
2022/10/06 14:00:04;;;;;;;3.50;1.90;;;18.20;1.00;;;;;;6328876;27;20225;-53
2022/10/06 14:03:10;;;;;;;2.70;1.90;;;18.20;1.00;;;;;;6334612;27;20242;-53
2022/10/06 14:06:20;;;;;;;4.70;2.00;;;18.30;1.00;;;;;;6332694;27;20232;-54
2022/10/06 14:09:25;;;;;;;3.93;1.90;;;18.40;1.00;;;;;;6325059;27;20235;-53
2022/10/06 14:12:28;;;;;;;5.83;2.10;;;18.50;1.00;;;;;;6337949;27;20736;-52
2022/10/06 14:15:38;;;;;;;4.87;2.20;;;18.40;1.00;;;;;;6327897;28;20764;-57
2022/10/06 14:18:44;;;;;;;4.17;2.30;;;18.50;1.00;;;;;;6326203;27;20232;-53
2022/10/06 14:21:50;;;;;;;3.10;2.37;;;18.50;1.00;;;;;;6336208;27;20579;-53
2022/10/06 14:24:53;;;;;;;3.07;2.13;;;18.50;1.00;;;;;;6335272;27;20612;-52
2022/10/06 14:27:56;;;;;;;3.77;2.33;;;18.40;1.00;;;;;;6331127;27;20240;-54
2022/10/06 14:30:59;;;;;;;3.60;2.00;;;18.20;1.00;;;;;;6333055;27;20232;-54
2022/10/06 14:34:04;;;;;;;3.60;2.40;;;18.10;1.00;;;;;;6334647;27;20244;-52
2022/10/06 14:37:14;;;;;;;5.27;2.27;;;18.10;1.00;;;;;;6330345;27;20636;-53
2022/10/06 14:40:16;;;;;;;3.73;2.60;;;18.00;1.00;;;;;;6327985;27;20933;-55
2022/10/06 14:43:19;;;;;;;2.70;2.00;;;18.00;1.00;;;;;;6337393;27;20770;-54
2022/10/06 14:46:23;;;;;;;2.50;2.30;;;18.00;1.00;;;;;;6337857;27;20232;-53
2022/10/06 14:49:26;;;;;;;4.07;2.17;;;17.90;1.00;;;;;;6327921;27;20317;-54
2022/10/06 14:52:30;;;;;;;3.10;2.17;;;17.90;1.00;;;;;;6331969;27;20262;-53
2022/10/06 14:55:33;;;;;;;9.43;2.20;;;17.80;1.00;;;;;;6328633;27;20235;-54
2022/10/06 14:58:37;;;;;;;3.83;1.90;;;17.70;1.00;;;;;;6330433;27;20251;-53
2022/10/06 15:01:41;;;;;;;4.23;2.30;;;17.60;1.00;;;;;;6341726;27;20624;-53
2022/10/06 15:04:43;;;;;;;6.13;2.30;;;17.50;1.00;;;;;;6335054;27;20263;-53
2022/10/06 15:11:08;;;;;;;2.67;2.47;;;17.40;1.00;;;;;;6325631;28;20240;-53
2022/10/06 15:14:11;;;;;;;5.03;2.40;;;17.40;1.00;;;;;;6339158;27;20767;-52
2022/10/06 15:17:13;;;;;;;4.03;2.47;;;17.30;1.00;;;;;;6330239;27;20246;-53
2022/10/06 15:20:16;;;;;;;11.30;2.60;;;17.20;1.00;;;;;;6331833;27;20342;-53
2022/10/06 15:23:20;;;;;;;4.30;2.40;;;17.10;1.00;;;;;;6327264;27;20240;-55
2022/10/06 15:29:44;;;;;;;2.13;1.87;;;17.00;1.00;;;;;;6328246;27;20271;-54
2022/10/06 15:32:47;;;;;;;2.23;2.10;;;16.90;1.00;;;;;;6329995;27;20733;-55
2022/10/06 15:36:13;;;;;;;7.20;2.40;;;16.90;1.00;;;;;;6327983;27;20411;-54
2022/10/06 15:39:19;;;;;;;3.63;2.27;;;16.80;1.00;;;;;;6332260;27;20685;-53
2022/10/06 15:42:24;;;;;;;4.47;2.30;;;16.80;1.00;;;;;;6333794;27;20338;-54
2022/10/06 15:45:27;;;;;;;2.17;2.07;;;16.70;1.00;;;;;;6330853;27;20240;-54
2022/10/06 15:48:29;;;;;;;4.10;2.13;;;16.70;1.00;;;;;;6334013;27;20243;-53
2022/10/06 15:51:36;;;;;;;3.40;2.30;;;16.60;1.00;;;;;;6333818;27;20719;-53
2022/10/06 15:54:42;;;;;;;4.93;2.50;;;16.50;1.00;;;;;;6335012;27;20288;-53
2022/10/06 15:57:45;;;;;;;5.50;2.40;;;16.50;1.00;;;;;;6332614;27;20531;-56
2022/10/06 16:00:48;;;;;;;4.00;2.30;;;16.50;1.00;;;;;;6339339;27;20231;-53
2022/10/06 16:03:52;;;;;;;3.00;2.77;;;16.40;1.00;;;;;;6329246;27;20483;-54
2022/10/06 16:06:55;;;;;;;3.13;2.47;;;16.40;1.00;;;;;;6332203;27;20243;-52
2022/10/06 16:09:59;;;;;;;3.53;2.80;;;16.30;1.00;;;;;;6337456;27;20242;-53
2022/10/06 16:13:02;;;;;;;3.53;2.57;;;16.30;1.00;;;;;;6329493;27;20235;-53
2022/10/06 16:16:05;;;;;;;4.13;2.50;;;16.30;1.00;;;;;;6328904;27;20936;-53
2022/10/06 16:19:08;;;;;;;7.47;2.77;;;16.20;1.00;;;;;;6332818;27;20232;-52
2022/10/06 16:22:13;;;;;;;4.63;2.83;;;16.10;1.00;;;;;;6315591;27;20386;-50
2022/10/06 16:25:17;;;;;;;6.13;2.70;;;16.10;1.00;;;;;;6334064;27;20231;-53
2022/10/06 16:28:20;;;;;;;5.53;2.87;;;16.00;1.00;;;;;;6322901;27;20233;-53
2022/10/06 16:31:23;;;;;;;4.63;2.43;;;15.90;1.00;;;;;;6333991;27;20254;-54
2022/10/06 16:34:26;;;;;;;6.23;2.50;;;15.80;1.00;;;;;;6334667;27;20227;-55
2022/10/06 16:37:29;;;;;;;4.40;2.93;;;15.80;1.00;;;;;;6334535;27;20232;-54
2022/10/06 16:40:33;;;;;;;3.57;2.30;;;15.80;1.00;;;;;;6333601;27;20243;-54
2022/10/06 16:43:38;;;;;;;4.27;2.97;;;15.70;1.00;;;;;;6335011;27;20917;-55